createdAt,value
2018-04-26T00:01:41.131Z,100277.63
2018-04-26T00:04:08.775Z,100277.28
2018-04-26T00:06:36.380Z,100280.57
2018-04-26T00:09:04.122Z,100279.08
2018-04-26T00:11:31.722Z,100279.70
2018-04-26T00:13:59.434Z,100282.19
2018-04-26T00:16:27.071Z,100282.80
2018-04-26T00:18:54.684Z,100281.02
2018-04-26T00:21:22.333Z,100284.05
2018-04-26T00:23:49.939Z,100280.36
2018-04-26T00:26:17.596Z,100286.93
2018-04-26T00:28:45.202Z,100291.28
2018-04-26T00:31:12.847Z,100284.97
2018-04-26T00:33:40.455Z,100286.30
2018-04-26T00:36:08.104Z,100285.59
2018-04-26T00:38:35.724Z,100280.52
2018-04-26T00:41:04.239Z,100287.15
2018-04-26T00:43:32.010Z,100286.10
2018-04-26T00:45:59.666Z,100284.97
2018-04-26T00:48:27.290Z,100285.84
2018-04-26T00:50:54.935Z,100283.96
2018-04-26T00:53:22.538Z,100277.95
2018-04-26T00:55:50.191Z,100279.01
2018-04-26T00:58:17.879Z,100283.45
2018-04-26T01:00:45.555Z,100281.20
2018-04-26T01:03:13.161Z,100283.80
2018-04-26T01:05:40.807Z,100284.48
2018-04-26T01:08:08.430Z,100297.16
2018-04-26T01:10:36.103Z,100294.23
2018-04-26T01:13:03.730Z,100296.85
2018-04-26T01:15:31.384Z,100291.50
2018-04-26T01:17:58.985Z,100290.67
2018-04-26T01:20:26.634Z,100297.67
2018-04-26T01:22:54.238Z,100304.66
2018-04-26T01:25:21.882Z,100312.33
2018-04-26T01:27:49.491Z,100312.66
2018-04-26T01:30:17.158Z,100315.56
2018-04-26T01:32:44.789Z,100315.83
2018-04-26T01:35:12.430Z,100310.63
2018-04-26T01:37:48.076Z,100313.99
2018-04-26T01:40:15.723Z,100316.32
2018-04-26T01:42:43.324Z,100317.79
2018-04-26T01:45:10.979Z,100314.97
2018-04-26T01:47:38.586Z,100309.59
2018-04-26T01:50:06.239Z,100306.91
2018-04-26T01:52:33.855Z,100300.55
2018-04-26T01:55:01.627Z,100300.41
2018-04-26T01:57:29.234Z,100294.81
2018-04-26T01:59:56.887Z,100303.41
2018-04-26T02:02:24.490Z,100301.99
2018-04-26T02:04:52.136Z,100296.54
2018-04-26T02:07:19.742Z,100296.31
2018-04-26T02:09:47.593Z,100297.53
2018-04-26T02:12:15.207Z,100292.90
2018-04-26T02:14:42.846Z,100290.35
2018-04-26T02:17:10.467Z,100291.97
2018-04-26T02:19:38.147Z,100303.66
2018-04-26T02:22:05.752Z,100305.83
2018-04-26T02:24:33.404Z,100307.97
2018-04-26T02:27:01.012Z,100312.89
2018-04-26T02:29:28.618Z,100311.89
2018-04-26T02:31:56.267Z,100316.44
2018-04-26T02:34:23.878Z,100320.73
2018-04-26T02:36:51.533Z,100318.09
2018-04-26T02:39:19.144Z,100321.22
2018-04-26T02:41:46.798Z,100325.75
2018-04-26T02:44:14.426Z,100317.67
2018-04-26T02:46:42.079Z,100323.16
2018-04-26T02:49:09.695Z,100315.80
2018-04-26T02:51:37.358Z,100322.45
2018-04-26T02:54:04.987Z,100329.00
2018-04-26T02:56:32.632Z,100331.95
2018-04-26T02:59:00.237Z,100324.66
2018-04-26T03:01:27.889Z,100336.00
2018-04-26T03:03:55.513Z,100332.53
2018-04-26T03:06:23.172Z,100330.81
2018-04-26T03:08:50.786Z,100329.78
2018-04-26T03:11:18.436Z,100329.33
2018-04-26T03:13:46.047Z,100335.91
2018-04-26T03:16:13.694Z,100326.09
2018-04-26T03:18:41.300Z,100339.73
2018-04-26T03:21:08.959Z,100337.53
2018-04-26T03:23:36.612Z,100337.72
2018-04-26T03:26:04.294Z,100345.05
2018-04-26T03:28:31.904Z,100339.22
2018-04-26T03:30:59.576Z,100341.26
2018-04-26T03:33:27.183Z,100340.38
2018-04-26T03:35:54.831Z,100350.77
2018-04-26T03:38:22.439Z,100345.28
2018-04-26T03:40:50.085Z,100359.02
2018-04-26T03:43:17.695Z,100361.86
2018-04-26T03:45:45.335Z,100356.64
2018-04-26T03:48:12.938Z,100362.19
2018-04-26T03:50:40.578Z,100363.84
2018-04-26T03:53:08.183Z,100361.59
2018-04-26T03:55:35.827Z,100350.19
2018-04-26T03:58:03.444Z,100356.14
2018-04-26T04:00:42.839Z,100353.84
2018-04-26T04:03:22.135Z,100350.83
2018-04-26T04:05:54.324Z,100355.72
2018-04-26T04:08:21.934Z,100348.87
2018-04-26T04:10:49.578Z,100352.19
2018-04-26T04:13:17.178Z,100359.94
2018-04-26T04:15:44.838Z,100358.41
2018-04-26T04:18:12.498Z,100373.08
2018-04-26T04:20:40.143Z,100365.27
2018-04-26T04:23:08.264Z,100366.78
2018-04-26T04:25:35.934Z,100362.43
2018-04-26T04:28:03.635Z,100362.14
2018-04-26T04:30:31.230Z,100360.87
2018-04-26T04:32:58.831Z,100363.11
2018-04-26T04:35:26.476Z,100364.04
2018-04-26T04:37:54.086Z,100371.03
2018-04-26T04:40:21.736Z,100372.55
2018-04-26T04:42:49.342Z,100378.42
2018-04-26T04:45:17.002Z,100380.36
2018-04-26T04:47:44.660Z,100383.51
2018-04-26T04:50:12.297Z,100386.50
2018-04-26T04:52:39.946Z,100390.38
2018-04-26T04:55:07.587Z,100388.88
2018-04-26T04:57:35.237Z,100391.05
2018-04-26T05:00:02.848Z,100395.19
2018-04-26T05:02:30.490Z,100396.81
2018-04-26T05:04:58.097Z,100397.06
2018-04-26T05:07:25.828Z,100397.19
2018-04-26T05:09:53.403Z,100405.56
2018-04-26T05:12:21.050Z,100416.43
2018-04-26T05:14:48.653Z,100414.00
2018-04-26T05:17:16.338Z,100408.62
2018-04-26T05:19:43.976Z,100405.77
2018-04-26T05:22:11.639Z,100414.08
2018-04-26T05:24:39.342Z,100413.73
2018-04-26T05:27:06.980Z,100414.95
2018-04-26T05:29:34.584Z,100410.26
2018-04-26T05:32:02.226Z,100418.66
2018-04-26T05:34:29.840Z,100418.17
2018-04-26T05:36:57.482Z,100425.98
2018-04-26T05:39:25.101Z,100433.09
2018-04-26T05:41:52.755Z,100438.30
2018-04-26T05:44:20.386Z,100435.23
2018-04-26T05:46:48.043Z,100436.39
2018-04-26T05:49:15.651Z,100443.55
2018-04-26T05:51:43.310Z,100446.55
2018-04-26T05:54:10.918Z,100445.88
2018-04-26T05:56:38.566Z,100440.19
2018-04-26T05:59:06.179Z,100441.59
2018-04-26T06:01:33.935Z,100433.87
2018-04-26T06:04:01.551Z,100438.44
2018-04-26T06:06:29.198Z,100433.06
2018-04-26T06:08:56.860Z,100433.33
2018-04-26T06:11:24.510Z,100443.23
2018-04-26T06:13:52.188Z,100443.07
2018-04-26T06:16:19.834Z,100448.16
2018-04-26T06:18:47.442Z,100447.61
2018-04-26T06:21:15.091Z,100438.91
2018-04-26T06:23:42.695Z,100454.97
2018-04-26T06:26:10.351Z,100458.97
2018-04-26T06:28:37.964Z,100457.17
2018-04-26T06:31:05.649Z,100457.75
2018-04-26T06:33:33.318Z,100468.18
2018-04-26T06:36:01.025Z,100465.84
2018-04-26T06:38:28.674Z,100461.62
2018-04-26T06:40:56.325Z,100464.41
2018-04-26T06:43:23.927Z,100475.91
2018-04-26T06:45:51.575Z,100484.84
2018-04-26T06:48:19.196Z,100486.49
2018-04-26T06:50:46.802Z,100486.05
2018-04-26T06:53:14.450Z,100487.67
2018-04-26T06:55:42.090Z,100489.90
2018-04-26T06:58:09.741Z,100494.83
2018-04-26T07:00:37.387Z,100507.11
2018-04-26T07:03:05.094Z,100493.41
2018-04-26T07:05:32.742Z,100502.85
2018-04-26T07:08:00.392Z,100499.55
2018-04-26T07:10:28.008Z,100494.59
2018-04-26T07:12:55.670Z,100503.52
2018-04-26T07:15:23.283Z,100498.66
2018-04-26T07:17:50.931Z,100496.98
2018-04-26T07:20:18.535Z,100505.81
2018-04-26T07:22:46.183Z,100494.94
2018-04-26T07:25:13.795Z,100500.67
2018-04-26T07:27:41.447Z,100489.69
2018-04-26T07:30:09.055Z,100501.45
2018-04-26T07:32:36.704Z,100486.42
2018-04-26T07:35:04.328Z,100504.11
2018-04-26T07:37:31.975Z,100499.06
2018-04-26T07:39:59.582Z,100496.96
2018-04-26T07:42:27.266Z,100502.27
2018-04-26T07:44:54.875Z,100510.08
2018-04-26T07:47:22.529Z,100509.66
2018-04-26T07:49:50.147Z,100512.13
2018-04-26T07:52:17.796Z,100511.26
2018-04-26T07:54:45.533Z,100511.20
2018-04-26T07:57:13.191Z,100514.39
2018-04-26T07:59:40.792Z,100518.64
2018-04-26T08:02:08.395Z,100534.19
2018-04-26T08:04:36.039Z,100528.18
2018-04-26T08:07:03.734Z,100525.14
2018-04-26T08:09:31.384Z,100530.23
2018-04-26T08:11:58.996Z,100532.11
2018-04-26T08:14:26.642Z,100540.31
2018-04-26T08:16:54.246Z,100530.19
2018-04-26T08:19:21.891Z,100545.38
2018-04-26T08:21:49.494Z,100535.72
2018-04-26T08:24:18.002Z,100543.15
2018-04-26T08:26:45.611Z,100543.55
2018-04-26T08:29:13.259Z,100532.23
2018-04-26T08:31:40.866Z,100542.68
2018-04-26T08:34:08.511Z,100535.20
2018-04-26T08:36:36.114Z,100545.39
2018-04-26T08:39:03.859Z,100535.37
2018-04-26T08:41:31.463Z,100546.20
2018-04-26T08:43:59.112Z,100540.48
2018-04-26T08:46:26.778Z,100553.16
2018-04-26T08:48:54.432Z,100555.15
2018-04-26T08:51:22.040Z,100549.64
2018-04-26T08:53:49.871Z,100562.78
2018-04-26T08:56:17.482Z,100572.66
2018-04-26T08:58:45.106Z,100568.17
2018-04-26T09:01:12.755Z,100577.66
2018-04-26T09:03:40.355Z,100572.70
2018-04-26T09:06:08.007Z,100577.59
2018-04-26T09:08:35.625Z,100588.58
2018-04-26T09:11:03.275Z,100576.31
2018-04-26T09:13:30.909Z,100576.94
2018-04-26T09:15:58.667Z,100574.66
2018-04-26T09:18:26.302Z,100578.59
2018-04-26T09:20:53.952Z,100576.31
2018-04-26T09:23:21.549Z,100573.77
2018-04-26T09:25:49.200Z,100577.17
2018-04-26T09:28:16.798Z,100564.12
2018-04-26T09:30:44.446Z,100574.30
2018-04-26T09:33:12.128Z,100573.63
2018-04-26T09:35:39.801Z,100577.27
2018-04-26T09:38:07.406Z,100577.66
2018-04-26T09:40:35.050Z,100578.41
2018-04-26T09:43:02.655Z,100588.20
2018-04-26T09:45:30.302Z,100586.03
2018-04-26T09:47:57.911Z,100592.02
2018-04-26T09:50:25.554Z,100575.73
2018-04-26T09:52:53.163Z,100583.02
2018-04-26T09:55:20.771Z,100590.19
2018-04-26T09:57:48.416Z,100593.81
2018-04-26T10:00:21.686Z,100582.87
2018-04-26T10:02:49.366Z,100589.55
2018-04-26T10:05:17.015Z,100581.20
2018-04-26T10:07:44.667Z,100570.88
2018-04-26T10:10:12.276Z,100584.33
2018-04-26T10:12:39.927Z,100587.43
2018-04-26T10:15:07.556Z,100580.75
2018-04-26T10:17:35.214Z,100585.16
2018-04-26T10:20:02.815Z,100579.16
2018-04-26T10:22:30.463Z,100589.81
2018-04-26T10:24:58.071Z,100591.59
2018-04-26T10:27:25.727Z,100588.28
2018-04-26T10:29:54.244Z,100588.97
2018-04-26T10:32:21.890Z,100583.34
2018-04-26T10:34:49.495Z,100584.16
2018-04-26T10:37:17.143Z,100588.81
2018-04-26T10:39:44.746Z,100581.64
2018-04-26T10:42:12.423Z,100580.77
2018-04-26T10:44:40.090Z,100587.51
2018-04-26T10:47:07.743Z,100582.53
2018-04-26T10:49:35.347Z,100575.42
2018-04-26T10:52:02.992Z,100581.20
2018-04-26T10:54:30.594Z,100567.54
2018-04-26T10:56:58.250Z,100576.34
2018-04-26T10:59:25.871Z,100578.02
2018-04-26T11:01:53.517Z,100573.09
2018-04-26T11:04:21.159Z,100573.57
2018-04-26T11:06:48.762Z,100575.69
2018-04-26T11:09:16.518Z,100566.19
2018-04-26T11:11:44.048Z,100570.51
2018-04-26T11:14:11.690Z,100570.80
2018-04-26T11:16:39.299Z,100574.80
2018-04-26T11:19:06.946Z,100576.96
2018-04-26T11:21:34.554Z,100569.25
2018-04-26T11:24:02.196Z,100576.39
2018-04-26T11:26:29.798Z,100571.59
2018-04-26T11:28:57.452Z,100576.59
2018-04-26T11:31:25.058Z,100566.11
2018-04-26T11:33:52.731Z,100583.71
2018-04-26T11:36:20.347Z,100572.02
2018-04-26T11:38:47.986Z,100568.87
2018-04-26T11:41:15.595Z,100571.59
2018-04-26T11:43:43.254Z,100576.72
2018-04-26T11:46:10.861Z,100562.64
2018-04-26T11:48:38.528Z,100567.25
2018-04-26T11:51:06.139Z,100564.45
2018-04-26T11:53:33.784Z,100557.22
2018-04-26T11:56:01.416Z,100551.47
2018-04-26T11:58:29.067Z,100549.40
2018-04-26T12:00:56.700Z,100560.47
2018-04-26T12:03:24.342Z,100557.38
2018-04-26T12:05:51.947Z,100561.89
2018-04-26T12:08:19.596Z,100564.55
2018-04-26T12:10:47.242Z,100553.62
2018-04-26T12:13:14.971Z,100551.81
2018-04-26T12:15:42.539Z,100553.10
2018-04-26T12:18:10.187Z,100546.48
2018-04-26T12:20:37.790Z,100547.42
2018-04-26T12:23:05.430Z,100545.16
2018-04-26T12:25:33.036Z,100538.64
2018-04-26T12:28:00.687Z,100544.33
2018-04-26T12:30:28.292Z,100545.22
2018-04-26T12:32:55.947Z,100541.14
2018-04-26T12:35:23.748Z,100550.09
2018-04-26T12:37:51.442Z,100545.09
2018-04-26T12:40:19.042Z,100550.99
2018-04-26T12:42:46.692Z,100546.88
2018-04-26T12:45:14.302Z,100548.45
2018-04-26T12:47:41.947Z,100548.55
2018-04-26T12:50:09.563Z,100542.66
2018-04-26T12:52:37.214Z,100543.13
2018-04-26T12:55:04.818Z,100544.97
2018-04-26T12:57:32.459Z,100536.61
2018-04-26T13:00:00.059Z,100541.88
2018-04-26T13:02:27.710Z,100540.48
2018-04-26T13:04:55.353Z,100535.05
2018-04-26T13:07:23.006Z,100536.78
2018-04-26T13:09:50.651Z,100540.69
2018-04-26T13:12:18.258Z,100538.30
2018-04-26T13:14:45.905Z,100542.51
2018-04-26T13:17:13.516Z,100531.72
2018-04-26T13:19:41.190Z,100545.20
2018-04-26T13:22:08.834Z,100532.20
2018-04-26T13:24:36.480Z,100552.31
2018-04-26T13:27:04.185Z,100544.02
2018-04-26T13:29:31.789Z,100546.09
2018-04-26T13:31:59.407Z,100543.33
2018-04-26T13:34:27.061Z,100542.35
2018-04-26T13:36:54.675Z,100540.05
2018-04-26T13:39:22.315Z,100534.63
2018-04-26T13:41:49.932Z,100532.22
2018-04-26T13:44:17.606Z,100533.38
2018-04-26T13:46:45.210Z,100532.25
2018-04-26T13:49:12.861Z,100526.59
2018-04-26T13:51:40.474Z,100531.47
2018-04-26T13:54:08.122Z,100530.39
2018-04-26T13:56:35.726Z,100531.14
2018-04-26T13:59:03.379Z,100527.12
2018-04-26T14:01:30.982Z,100530.77
2018-04-26T14:03:58.622Z,100522.31
2018-04-26T14:06:26.331Z,100532.91
2018-04-26T14:08:54.095Z,100533.42
2018-04-26T14:11:21.860Z,100535.69
2018-04-26T14:13:49.584Z,100531.76
2018-04-26T14:16:17.391Z,100523.62
2018-04-26T14:18:45.252Z,100526.72
2018-04-26T14:21:12.992Z,100526.97
2018-04-26T14:23:40.783Z,100529.86
2018-04-26T14:26:08.548Z,100533.00
2018-04-26T14:28:36.414Z,100531.63
2018-04-26T14:31:04.076Z,100529.19
2018-04-26T14:33:31.943Z,100538.48
2018-04-26T14:35:59.704Z,100531.63
2018-04-26T14:38:27.355Z,100534.52
2018-04-26T14:40:54.966Z,100524.25
2018-04-26T14:43:22.652Z,100518.75
2018-04-26T14:45:50.264Z,100513.65
2018-04-26T14:48:17.919Z,100513.98
2018-04-26T14:50:45.527Z,100494.84
2018-04-26T14:53:13.184Z,100493.63
2018-04-26T14:55:40.841Z,100496.70
2018-04-26T14:58:08.616Z,100493.36
2018-04-26T15:00:36.432Z,100490.89
2018-04-26T15:03:04.245Z,100490.00
2018-04-26T15:05:32.064Z,100491.80
2018-04-26T15:07:59.935Z,100477.16
2018-04-26T15:10:27.695Z,100473.73
2018-04-26T15:12:55.338Z,100477.20
2018-04-26T15:15:22.951Z,100476.14
2018-04-26T15:17:50.559Z,100464.97
2018-04-26T15:20:18.202Z,100476.44
2018-04-26T15:22:45.822Z,100457.69
2018-04-26T15:25:13.471Z,100464.16
2018-04-26T15:27:41.071Z,100465.96
2018-04-26T15:30:08.714Z,100470.23
2018-04-26T15:32:36.314Z,100472.44
2018-04-26T15:35:03.972Z,100462.86
2018-04-26T15:37:31.583Z,100455.09
2018-04-26T15:39:59.234Z,100471.89
2018-04-26T15:42:26.835Z,100474.83
2018-04-26T15:44:54.485Z,100469.42
2018-04-26T15:47:22.090Z,100460.36
2018-04-26T15:49:49.730Z,100455.80
2018-04-26T15:55:31.447Z,100467.06
2018-04-26T16:01:28.411Z,100476.55
2018-04-26T16:04:07.818Z,100465.20
2018-04-26T16:06:45.387Z,100465.90
2018-04-26T16:09:24.958Z,100470.27
2018-04-26T16:12:04.443Z,100467.98
2018-04-26T16:14:44.100Z,100463.73
2018-04-26T16:17:29.159Z,100457.90
2018-04-26T16:20:14.227Z,100456.08
2018-04-26T16:22:59.225Z,100457.05
2018-04-26T16:25:38.811Z,100451.69
2018-04-26T16:28:23.768Z,100463.25
2018-04-26T16:31:08.845Z,100468.30
2018-04-26T16:33:48.251Z,100465.33
2018-04-26T16:36:27.692Z,100451.88
2018-04-26T16:41:58.203Z,100457.18
2018-04-26T16:44:26.797Z,100452.42
2018-04-26T16:46:54.434Z,100450.07
2018-04-26T16:49:22.043Z,100461.48
2018-04-26T16:51:49.688Z,100457.30
2018-04-26T16:54:17.291Z,100461.83
2018-04-26T16:56:44.935Z,100465.27
2018-04-26T16:59:12.546Z,100474.28
2018-04-26T17:01:40.203Z,100474.36
2018-04-26T17:04:07.822Z,100478.22
2018-04-26T17:06:35.503Z,100470.00
2018-04-26T17:09:03.191Z,100471.16
2018-04-26T17:11:30.873Z,100461.70
2018-04-26T17:13:58.503Z,100477.64
2018-04-26T17:16:26.155Z,100474.25
2018-04-26T17:18:53.769Z,100473.66
2018-04-26T17:21:21.419Z,100479.46
2018-04-26T17:23:49.070Z,100489.86
2018-04-26T17:26:16.719Z,100489.48
2018-04-26T17:28:44.327Z,100494.27
2018-04-26T17:31:11.975Z,100484.32
2018-04-26T17:33:39.583Z,100488.05
2018-04-26T17:36:07.234Z,100495.44
2018-04-26T17:38:34.850Z,100497.20
2018-04-26T17:41:02.504Z,100500.02
2018-04-26T17:43:30.107Z,100490.32
2018-04-26T17:45:57.767Z,100493.98
2018-04-26T17:48:25.367Z,100489.27
2018-04-26T17:50:53.019Z,100485.57
2018-04-26T17:53:20.708Z,100489.14
2018-04-26T17:55:48.263Z,100488.37
2018-04-26T17:58:15.957Z,100489.80
2018-04-26T18:00:43.568Z,100494.59
2018-04-26T18:03:11.218Z,100486.23
2018-04-26T18:05:38.825Z,100499.42
2018-04-26T18:08:06.471Z,100506.29
2018-04-26T18:10:34.073Z,100517.84
2018-04-26T18:13:01.714Z,100514.47
2018-04-26T18:15:29.318Z,100515.55
2018-04-26T18:17:56.963Z,100515.76
2018-04-26T18:20:24.620Z,100516.86
2018-04-26T18:22:52.251Z,100520.97
2018-04-26T18:25:19.928Z,100520.88
2018-04-26T18:27:47.572Z,100519.19
2018-04-26T18:30:15.185Z,100524.63
2018-04-26T18:32:42.835Z,100531.70
2018-04-26T18:35:10.438Z,100538.34
2018-04-26T18:37:38.084Z,100531.70
2018-04-26T18:40:05.708Z,100533.39
2018-04-26T18:42:33.364Z,100532.63
2018-04-26T18:45:01.155Z,100533.44
2018-04-26T18:47:28.806Z,100542.08
2018-04-26T18:49:56.413Z,100538.58
2018-04-26T18:52:24.063Z,100536.55
2018-04-26T18:54:51.670Z,100535.74
2018-04-26T18:57:19.320Z,100539.09
2018-04-26T18:59:46.926Z,100536.78
2018-04-26T19:02:14.651Z,100532.91
2018-04-26T19:04:42.231Z,100542.14
2018-04-26T19:07:09.878Z,100541.64
2018-04-26T19:09:37.504Z,100547.64
2018-04-26T19:12:05.158Z,100540.95
2018-04-26T19:14:32.768Z,100544.97
2018-04-26T19:17:00.413Z,100535.25
2018-04-26T19:19:28.027Z,100527.44
2018-04-26T19:21:55.672Z,100533.25
2018-04-26T19:24:23.278Z,100540.39
2018-04-26T19:26:50.923Z,100544.42
2018-04-26T19:29:18.531Z,100546.48
2018-04-26T19:31:46.283Z,100557.64
2018-04-26T19:34:13.906Z,100556.38
2018-04-26T19:36:41.644Z,100559.92
2018-04-26T19:39:09.248Z,100565.11
2018-04-26T19:41:36.890Z,100573.15
2018-04-26T19:44:04.490Z,100565.84
2018-04-26T19:46:32.140Z,100565.97
2018-04-26T19:48:59.742Z,100567.35
2018-04-26T19:51:27.391Z,100574.91
2018-04-26T19:53:54.995Z,100571.95
2018-04-26T19:56:22.646Z,100569.61
2018-04-26T19:58:50.258Z,100571.23
2018-04-26T20:01:17.871Z,100573.55
2018-04-26T20:03:45.515Z,100567.64
2018-04-26T20:06:13.200Z,100570.13
2018-04-26T20:08:40.909Z,100571.74
2018-04-26T20:11:08.928Z,100568.02
2018-04-26T20:13:36.574Z,100565.13
2018-04-26T20:16:04.176Z,100563.31
2018-04-26T20:18:31.881Z,100565.14
2018-04-26T20:20:59.472Z,100568.47
2018-04-26T20:23:27.127Z,100568.54
2018-04-26T20:25:55.179Z,100556.23
2018-04-26T20:28:22.848Z,100556.88
2018-04-26T20:30:50.474Z,100564.73
2018-04-26T20:33:18.131Z,100566.69
2018-04-26T20:35:45.763Z,100566.05
2018-04-26T20:38:13.422Z,100571.89
2018-04-26T20:40:41.036Z,100573.22
2018-04-26T20:43:08.691Z,100572.52
2018-04-26T20:45:36.318Z,100567.99
2018-04-26T20:48:03.975Z,100566.48
2018-04-26T20:50:31.758Z,100577.67
2018-04-26T20:52:59.938Z,100567.23
2018-04-26T20:55:27.599Z,100569.78
2018-04-26T20:57:55.243Z,100566.08
2018-04-26T21:00:22.874Z,100568.18
2018-04-26T21:02:50.515Z,100567.40
2018-04-26T21:05:18.132Z,100570.16
2018-04-26T21:07:45.786Z,100567.48
2018-04-26T21:10:13.395Z,100567.69
2018-04-26T21:12:41.060Z,100555.31
2018-04-26T21:15:08.669Z,100555.67
2018-04-26T21:17:36.313Z,100562.20
2018-04-26T21:20:03.928Z,100554.41
2018-04-26T21:22:31.615Z,100552.92
2018-04-26T21:24:59.228Z,100557.48
2018-04-26T21:27:27.083Z,100557.99
2018-04-26T21:29:54.706Z,100557.37
2018-04-26T21:32:22.351Z,100550.94
2018-04-26T21:34:49.964Z,100553.77
2018-04-26T21:37:17.612Z,100549.63
2018-04-26T21:39:45.766Z,100547.59
2018-04-26T21:42:13.458Z,100548.05
2018-04-26T21:44:41.104Z,100547.77
2018-04-26T21:47:08.746Z,100538.80
2018-04-26T21:49:35.826Z,100530.71
2018-04-26T21:52:08.870Z,100538.98
2018-04-26T21:54:42.299Z,100536.88
2018-04-26T21:57:15.577Z,100533.71
2018-04-26T21:59:48.680Z,100548.53
2018-04-26T22:02:21.969Z,100542.32
2018-04-26T22:04:54.955Z,100541.86
2018-04-26T22:07:22.631Z,100541.78
2018-04-26T22:09:50.318Z,100544.97
2018-04-26T22:12:17.979Z,100548.05
2018-04-26T22:14:45.627Z,100536.05
2018-04-26T22:17:13.246Z,100538.36
2018-04-26T22:19:40.913Z,100540.34
2018-04-26T22:22:08.531Z,100532.41
2018-04-26T22:24:36.195Z,100535.16
2018-04-26T22:27:03.815Z,100536.25
2018-04-26T22:29:31.488Z,100538.79
2018-04-26T22:31:59.099Z,100538.23
2018-04-26T22:34:26.744Z,100535.75
2018-04-26T22:36:54.355Z,100538.06
2018-04-26T22:39:22.002Z,100535.56
2018-04-26T22:41:49.607Z,100534.70
2018-04-26T22:44:17.255Z,100534.44
2018-04-26T22:46:44.870Z,100542.08
2018-04-26T22:49:12.518Z,100539.98
2018-04-26T22:51:40.136Z,100527.27
2018-04-26T22:54:07.788Z,100530.20
2018-04-26T22:56:35.400Z,100533.13
2018-04-26T22:59:03.047Z,100529.09
2018-04-26T23:01:30.668Z,100524.05
2018-04-26T23:03:58.327Z,100526.56
2018-04-26T23:06:25.930Z,100529.77
2018-04-26T23:08:53.590Z,100525.56
2018-04-26T23:11:21.213Z,100523.38
2018-04-26T23:13:48.870Z,100523.92
2018-04-26T23:16:16.484Z,100515.30
2018-04-26T23:18:44.139Z,100515.27
2018-04-26T23:21:11.744Z,100514.38
2018-04-26T23:23:39.387Z,100510.88
2018-04-26T23:26:07.018Z,100508.67
2018-04-26T23:28:34.672Z,100509.80
2018-04-26T23:31:02.292Z,100508.54
2018-04-26T23:33:29.941Z,100513.68
2018-04-26T23:35:57.559Z,100515.81
2018-04-26T23:38:25.216Z,100507.72
2018-04-26T23:40:52.824Z,100511.60
2018-04-26T23:43:20.471Z,100515.39
2018-04-26T23:45:48.083Z,100510.80
2018-04-26T23:48:15.731Z,100504.67
2018-04-26T23:50:43.378Z,100500.59
2018-04-26T23:53:11.039Z,100498.96
2018-04-26T23:55:38.649Z,100498.81
2018-04-26T23:58:06.298Z,100500.52
